Aérodrome :
LOGIN :

S'inscrire | Disclaimer

   EN    FR    IT 

 










Légende :    VFR   VFR Marginal   IFR   IFR Intensif   IFR Très Intensif
Visi : 
Plafond : 
>= 8 km
>= 3000ft
5 à 8 km
1000 à 3000 ft
1500m à 5 km
500 à 1000 ft
800 à 1500m
200 à 500 ft
< 800m
< 200 ft
Symboles :   Orages  Brouillard  Fortes neiges  Fortes précipitations  Vent > 20 kt
SIGMETs :   Divers  Orages  Givrage  Turbulence  Onde Orograph.  Cendres Volcan.







- Altitude de l'aérodrome : 1115 ft
- Code IATA : GRZ


LOWG - Graz

DERNIER METAR :
  • 240020Z AUTO VRB02KT 9999 FEW060 BKN090 14/08 Q1021

METARs EXPIRÉS :
  • 232350Z AUTO VRB01KT 9999 FEW060 BKN080 14/08 Q1021
  • 232320Z AUTO VRB02KT 9999 FEW060 BKN070 15/07 Q1021
  • 232250Z AUTO 30003KT 250V010 9999 SCT060 BKN070 16/06 Q1021
  • 232220Z AUTO VRB02KT 9999 FEW060 OVC070 15/07 Q1021
  • 232150Z AUTO VRB02KT 9999 SCT060 BKN070 16/05 Q1021

TAF TAF LOWG
Valide du 24 à 00h jusqu'au 25 à 00h UTC


232315Z 2400/2424 35004KT 9999 FEW060 BKN080 TX19/2414Z TN11/2403Z
BECMG 2421/2424 -RA FEW030 BKN050
Pas de NOTAMs connus pour ce terrain.



MET'MAP, la Météo Aéronautique d'un coup d'oeil ! - Copyright ORBIFLY Décembre 2007 - Disclaimer

ORBIFLY MET'MAP TEAM :

Programmation & Développement : Alexandra Zaïnal
Conception & Développement : Baudouin d'Aumeries
Co-Programmation & Développement : Marc-Olivier Méhu
Soutien technique & logistique : Manuel Goepfert

Contact : metmap@orbifly.com




SOURCES & CREDITS :

   NOAA